createdAt,value
2022-09-03T00:00:45.835Z,13.33
2022-09-03T00:01:45.928Z,13.27
2022-09-03T00:02:46.082Z,13.23
2022-09-03T00:03:45.803Z,13.20
2022-09-03T00:04:45.787Z,13.20
2022-09-03T00:05:45.777Z,13.20
2022-09-03T00:06:45.765Z,13.22
2022-09-03T00:07:45.752Z,13.23
2022-09-03T00:08:45.740Z,13.25
2022-09-03T00:09:45.722Z,13.27
2022-09-03T00:10:45.712Z,13.28
2022-09-03T00:11:45.694Z,13.30
2022-09-03T00:12:45.687Z,13.30
2022-09-03T00:13:45.671Z,13.30
2022-09-03T00:14:45.653Z,13.30
2022-09-03T00:15:45.743Z,13.28
2022-09-03T00:16:45.637Z,13.25
2022-09-03T00:17:45.623Z,13.22
2022-09-03T00:18:45.611Z,13.25
2022-09-03T00:19:45.594Z,13.28
2022-09-03T00:20:45.578Z,13.30
2022-09-03T00:21:45.569Z,13.30
2022-09-03T00:22:45.563Z,13.30
2022-09-03T00:23:45.546Z,13.31
2022-09-03T00:24:45.528Z,13.33
2022-09-03T00:25:45.517Z,13.31
2022-09-03T00:26:45.507Z,13.31
2022-09-03T00:27:45.497Z,13.35
2022-09-03T00:28:45.482Z,13.35
2022-09-03T00:29:45.463Z,13.39
2022-09-03T00:30:45.480Z,13.38
2022-09-03T00:31:45.440Z,13.39
2022-09-03T00:32:45.428Z,13.41
2022-09-03T00:33:45.411Z,13.41
2022-09-03T00:34:45.400Z,13.42
2022-09-03T00:35:45.390Z,13.44
2022-09-03T00:36:45.378Z,13.41
2022-09-03T00:37:45.358Z,13.41
2022-09-03T00:38:45.356Z,13.44
2022-09-03T00:39:45.410Z,13.44
2022-09-03T00:40:45.324Z,13.42
2022-09-03T00:41:45.317Z,13.39
2022-09-03T00:42:45.303Z,13.39
2022-09-03T00:43:45.282Z,13.35
2022-09-03T00:44:45.275Z,13.37
2022-09-03T00:45:45.265Z,13.37
2022-09-03T00:46:45.294Z,13.35
2022-09-03T00:47:45.234Z,13.33
2022-09-03T00:48:45.217Z,13.35
2022-09-03T00:49:45.205Z,13.35
2022-09-03T00:50:45.201Z,13.37
2022-09-03T00:51:45.180Z,13.38
2022-09-03T00:52:45.166Z,13.38
2022-09-03T00:53:45.154Z,13.38
2022-09-03T00:54:45.141Z,13.39
2022-09-03T00:55:45.132Z,13.38
2022-09-03T00:56:45.122Z,13.41
2022-09-03T00:57:47.560Z,13.42
2022-09-03T00:58:45.090Z,13.44
2022-09-03T00:59:45.080Z,13.44
2022-09-03T01:00:45.068Z,13.42
2022-09-03T01:01:45.196Z,13.46
2022-09-03T01:02:45.199Z,13.47
2022-09-03T01:03:45.025Z,13.49
2022-09-03T01:04:45.014Z,13.49
2022-09-03T01:05:44.999Z,13.46
2022-09-03T01:06:44.985Z,13.46
2022-09-03T01:07:44.973Z,13.47
2022-09-03T01:08:44.956Z,13.46
2022-09-03T01:09:44.946Z,13.44
2022-09-03T01:10:44.937Z,13.42
2022-09-03T01:11:44.919Z,13.44
2022-09-03T01:12:44.912Z,13.44
2022-09-03T01:13:44.895Z,13.42
2022-09-03T01:14:44.884Z,13.41
2022-09-03T01:15:45.025Z,13.42
2022-09-03T01:16:44.856Z,13.44
2022-09-03T01:17:44.850Z,13.46
2022-09-03T01:18:44.827Z,13.49
2022-09-03T01:19:44.821Z,13.50
2022-09-03T01:20:44.810Z,13.53
2022-09-03T01:21:44.789Z,13.53
2022-09-03T01:22:44.783Z,13.57
2022-09-03T01:23:44.767Z,13.59
2022-09-03T01:24:44.752Z,13.59
2022-09-03T01:25:44.743Z,13.59
2022-09-03T01:26:44.731Z,13.60
2022-09-03T01:27:44.720Z,13.60
2022-09-03T01:28:44.701Z,13.60
2022-09-03T01:29:44.693Z,13.60
2022-09-03T01:30:44.706Z,13.59
2022-09-03T01:31:44.677Z,13.59
2022-09-03T01:32:44.652Z,13.59
2022-09-03T01:33:44.638Z,13.54
2022-09-03T01:34:44.627Z,13.56
2022-09-03T01:35:44.615Z,13.56
2022-09-03T01:36:44.599Z,13.57
2022-09-03T01:37:44.591Z,13.59
2022-09-03T01:38:44.574Z,13.57
2022-09-03T01:39:44.612Z,13.59
2022-09-03T01:40:44.551Z,13.60
2022-09-03T01:41:44.537Z,13.60
2022-09-03T01:42:44.521Z,13.56
2022-09-03T01:43:45.486Z,13.56
2022-09-03T01:44:44.501Z,13.54
2022-09-03T01:45:51.054Z,13.52
2022-09-03T01:46:44.534Z,13.53
2022-09-03T01:47:44.458Z,13.49
2022-09-03T01:48:44.442Z,13.49
2022-09-03T01:49:44.435Z,13.49
2022-09-03T01:50:44.425Z,13.53
2022-09-03T01:51:44.407Z,13.53
2022-09-03T01:52:44.394Z,13.53
2022-09-03T01:53:44.383Z,13.56
2022-09-03T01:54:44.367Z,13.57
2022-09-03T01:55:44.353Z,13.60
2022-09-03T01:56:44.345Z,13.63
2022-09-03T01:57:44.329Z,13.63
2022-09-03T01:58:44.319Z,13.57
2022-09-03T01:59:44.303Z,13.60
2022-09-03T02:00:44.295Z,13.60
2022-09-03T02:01:44.402Z,13.59
2022-09-03T02:02:44.322Z,13.60
2022-09-03T02:03:44.255Z,13.62
2022-09-03T02:04:44.241Z,13.62
2022-09-03T02:05:44.227Z,13.65
2022-09-03T02:06:44.214Z,13.65
2022-09-03T02:07:44.203Z,13.65
2022-09-03T02:08:44.186Z,13.62
2022-09-03T02:09:44.176Z,13.59
2022-09-03T02:10:44.162Z,13.56
2022-09-03T02:11:44.148Z,13.56
2022-09-03T02:12:44.138Z,13.54
2022-09-03T02:13:44.128Z,13.50
2022-09-03T02:14:44.118Z,13.52
2022-09-03T02:15:44.200Z,13.53
2022-09-03T02:16:44.083Z,13.52
2022-09-03T02:17:44.071Z,13.53
2022-09-03T02:18:44.057Z,13.53
2022-09-03T02:19:44.044Z,13.52
2022-09-03T02:20:44.032Z,13.50
2022-09-03T02:21:44.020Z,13.53
2022-09-03T02:22:44.011Z,13.52
2022-09-03T02:23:44.001Z,13.53
2022-09-03T02:24:43.983Z,13.54
2022-09-03T02:25:43.969Z,13.56
2022-09-03T02:26:43.958Z,13.57
2022-09-03T02:27:43.948Z,13.57
2022-09-03T02:28:43.933Z,13.59
2022-09-03T02:29:43.923Z,13.59
2022-09-03T02:30:43.971Z,13.57
2022-09-03T02:31:43.894Z,13.57
2022-09-03T02:32:43.874Z,13.57
2022-09-03T02:33:43.865Z,13.56
2022-09-03T02:34:43.853Z,13.56
2022-09-03T02:35:43.841Z,13.56
2022-09-03T02:36:43.833Z,13.56
2022-09-03T02:37:43.818Z,13.56
2022-09-03T02:38:43.806Z,13.59
2022-09-03T02:39:43.830Z,13.60
2022-09-03T02:40:43.777Z,13.59
2022-09-03T02:41:43.782Z,13.59
2022-09-03T02:42:43.752Z,13.60
2022-09-03T02:43:43.735Z,13.59
2022-09-03T02:44:43.734Z,13.60
2022-09-03T02:45:43.756Z,13.62
2022-09-03T02:46:43.702Z,13.65
2022-09-03T02:47:43.688Z,13.65
2022-09-03T02:48:43.672Z,13.67
2022-09-03T02:49:43.656Z,13.67
2022-09-03T02:50:43.649Z,13.65
2022-09-03T02:51:43.634Z,13.62
2022-09-03T02:52:43.628Z,13.62
2022-09-03T02:53:43.609Z,13.63
2022-09-03T02:54:43.598Z,13.60
2022-09-03T02:55:43.582Z,13.56
2022-09-03T02:56:43.571Z,13.59
2022-09-03T02:57:43.557Z,13.57
2022-09-03T02:58:43.544Z,13.56
2022-09-03T02:59:43.531Z,13.54
2022-09-03T03:00:43.522Z,13.53
2022-09-03T03:01:43.560Z,13.53
2022-09-03T03:02:43.585Z,13.54
2022-09-03T03:03:43.480Z,13.54
2022-09-03T03:04:43.467Z,13.56
2022-09-03T03:05:43.457Z,13.56
2022-09-03T03:06:43.441Z,13.56
2022-09-03T03:07:43.430Z,13.57
2022-09-03T03:08:43.413Z,13.57
2022-09-03T03:09:43.406Z,13.56
2022-09-03T03:10:43.387Z,13.57
2022-09-03T03:11:43.377Z,13.59
2022-09-03T03:12:43.364Z,13.60
2022-09-03T03:13:43.359Z,13.62
2022-09-03T03:14:43.344Z,13.65
2022-09-03T03:15:43.325Z,13.63
2022-09-03T03:16:43.391Z,13.63
2022-09-03T03:17:43.300Z,13.62
2022-09-03T03:18:43.293Z,13.57
2022-09-03T03:19:43.273Z,13.57
2022-09-03T03:20:43.259Z,13.57
2022-09-03T03:21:43.246Z,13.54
2022-09-03T03:22:43.230Z,13.54
2022-09-03T03:23:43.220Z,13.53
2022-09-03T03:24:43.214Z,13.52
2022-09-03T03:25:43.194Z,13.50
2022-09-03T03:26:43.185Z,13.50
2022-09-03T03:27:43.171Z,13.52
2022-09-03T03:28:43.163Z,13.50
2022-09-03T03:29:43.145Z,13.47
2022-09-03T03:30:43.274Z,13.44
2022-09-03T03:31:43.123Z,13.44
2022-09-03T03:32:43.105Z,13.42
2022-09-03T03:33:43.097Z,13.46
2022-09-03T03:34:43.082Z,13.44
2022-09-03T03:35:43.069Z,13.46
2022-09-03T03:36:43.051Z,13.44
2022-09-03T03:37:43.036Z,13.42
2022-09-03T03:38:43.024Z,13.44
2022-09-03T03:39:43.041Z,13.44
2022-09-03T03:40:43.006Z,13.44
2022-09-03T03:41:42.984Z,13.44
2022-09-03T03:42:42.980Z,13.42
2022-09-03T03:43:42.961Z,13.42
2022-09-03T03:44:42.951Z,13.42
2022-09-03T03:45:42.964Z,13.41
2022-09-03T03:46:42.926Z,13.42
2022-09-03T03:47:42.910Z,13.42
2022-09-03T03:48:42.898Z,13.44
2022-09-03T03:49:42.885Z,13.42
2022-09-03T03:50:42.871Z,13.44
2022-09-03T03:51:42.856Z,13.42
2022-09-03T03:52:42.846Z,13.42
2022-09-03T03:53:42.834Z,13.44
2022-09-03T03:54:42.821Z,13.42
2022-09-03T03:55:42.809Z,13.41
2022-09-03T03:56:42.796Z,13.42
2022-09-03T03:57:42.785Z,13.41
2022-09-03T03:58:42.770Z,13.38
2022-09-03T03:59:42.757Z,13.35
2022-09-03T04:00:42.744Z,13.35
2022-09-03T04:01:42.805Z,13.30
2022-09-03T04:02:42.766Z,13.28
2022-09-03T04:03:42.709Z,13.27
2022-09-03T04:04:42.697Z,13.28
2022-09-03T04:05:48.504Z,13.27
2022-09-03T04:06:42.664Z,13.28
2022-09-03T04:07:42.654Z,13.30
2022-09-03T04:08:42.646Z,13.30
2022-09-03T04:09:42.626Z,13.30
2022-09-03T04:10:42.613Z,13.28
2022-09-03T04:11:42.604Z,13.28
2022-09-03T04:12:42.587Z,13.30
2022-09-03T04:13:42.576Z,13.28
2022-09-03T04:14:42.563Z,13.31
2022-09-03T04:15:42.553Z,13.35
2022-09-03T04:16:42.644Z,13.31
2022-09-03T04:17:42.526Z,13.35
2022-09-03T04:18:42.511Z,13.35
2022-09-03T04:19:42.502Z,13.35
2022-09-03T04:20:42.493Z,13.37
2022-09-03T04:21:42.477Z,13.38
2022-09-03T04:22:42.457Z,13.37
2022-09-03T04:23:42.450Z,13.37
2022-09-03T04:24:42.443Z,13.37
2022-09-03T04:25:42.427Z,13.39
2022-09-03T04:26:42.409Z,13.39
2022-09-03T04:27:42.409Z,13.38
2022-09-03T04:28:42.380Z,13.37
2022-09-03T04:29:42.370Z,13.35
2022-09-03T04:30:42.398Z,13.35
2022-09-03T04:31:42.352Z,13.33
2022-09-03T04:32:42.333Z,13.35
2022-09-03T04:33:42.328Z,13.39
2022-09-03T04:34:42.313Z,13.38
2022-09-03T04:35:42.300Z,13.39
2022-09-03T04:36:42.288Z,13.38
2022-09-03T04:37:42.273Z,13.41
2022-09-03T04:38:42.260Z,13.41
2022-09-03T04:39:42.291Z,13.42
2022-09-03T04:40:42.235Z,13.46
2022-09-03T04:41:42.220Z,13.44
2022-09-03T04:42:42.206Z,13.44
2022-09-03T04:43:42.198Z,13.46
2022-09-03T04:44:42.183Z,13.44
2022-09-03T04:45:42.212Z,13.46
2022-09-03T04:46:42.157Z,13.47
2022-09-03T04:47:42.144Z,13.47
2022-09-03T04:48:42.129Z,13.49
2022-09-03T04:49:42.109Z,13.49
2022-09-03T04:50:42.103Z,13.49
2022-09-03T04:51:42.108Z,13.49
2022-09-03T04:52:42.078Z,13.50
2022-09-03T04:53:42.065Z,13.49
2022-09-03T04:54:42.055Z,13.50
2022-09-03T04:55:42.041Z,13.53
2022-09-03T04:56:42.031Z,13.53
2022-09-03T04:57:42.013Z,13.54
2022-09-03T04:58:43.202Z,13.56
2022-09-03T04:59:41.986Z,13.56
2022-09-03T05:00:42.047Z,13.57
2022-09-03T05:01:41.964Z,13.59
2022-09-03T05:02:41.953Z,13.60
2022-09-03T05:03:41.934Z,13.62
2022-09-03T05:04:41.922Z,13.63
2022-09-03T05:05:41.916Z,13.65
2022-09-03T05:06:41.903Z,13.67
2022-09-03T05:07:41.883Z,13.65
2022-09-03T05:08:41.871Z,13.68
2022-09-03T05:09:41.859Z,13.70
2022-09-03T05:10:41.850Z,13.70
2022-09-03T05:11:41.829Z,13.70
2022-09-03T05:12:41.820Z,13.71
2022-09-03T05:13:41.804Z,13.72
2022-09-03T05:14:41.792Z,13.75
2022-09-03T05:15:41.783Z,13.75
2022-09-03T05:16:41.816Z,13.77
2022-09-03T05:17:41.758Z,13.78
2022-09-03T05:18:41.746Z,13.77
2022-09-03T05:19:41.732Z,13.78
2022-09-03T05:20:41.715Z,13.78
2022-09-03T05:21:41.704Z,13.81
2022-09-03T05:22:41.693Z,13.83
2022-09-03T05:23:41.677Z,13.83
2022-09-03T05:24:41.664Z,13.83
2022-09-03T05:25:41.649Z,13.83
2022-09-03T05:26:41.643Z,13.85
2022-09-03T05:27:41.629Z,13.85
2022-09-03T05:28:41.619Z,13.87
2022-09-03T05:29:41.610Z,13.89
2022-09-03T05:30:41.593Z,13.89
2022-09-03T05:31:41.644Z,13.89
2022-09-03T05:32:41.567Z,13.92
2022-09-03T05:33:41.558Z,13.92
2022-09-03T05:34:41.543Z,13.92
2022-09-03T05:35:41.527Z,13.93
2022-09-03T05:36:41.514Z,13.95
2022-09-03T05:37:41.504Z,13.96
2022-09-03T05:38:41.501Z,13.99
2022-09-03T05:39:41.536Z,14.00
2022-09-03T05:40:41.461Z,13.99
2022-09-03T05:41:41.455Z,14.03
2022-09-03T05:42:41.436Z,14.03
2022-09-03T05:43:41.424Z,14.00
2022-09-03T05:44:41.410Z,13.97
2022-09-03T05:45:41.422Z,13.95
2022-09-03T05:46:41.385Z,13.92
2022-09-03T05:47:41.371Z,13.92
2022-09-03T05:48:41.362Z,13.90
2022-09-03T05:49:41.346Z,13.93
2022-09-03T05:50:41.337Z,13.93
2022-09-03T05:51:41.323Z,13.95
2022-09-03T05:52:41.306Z,13.95
2022-09-03T05:53:41.298Z,13.95
2022-09-03T05:54:41.287Z,13.97
2022-09-03T05:55:41.273Z,13.99
2022-09-03T05:56:41.257Z,14.03
2022-09-03T05:57:41.236Z,14.03
2022-09-03T05:58:41.231Z,14.05
2022-09-03T05:59:41.222Z,14.05
2022-09-03T06:00:41.208Z,14.10
2022-09-03T06:01:41.282Z,14.10
2022-09-03T06:02:41.325Z,14.12
2022-09-03T06:03:41.313Z,14.11
2022-09-03T06:04:41.149Z,14.11
2022-09-03T06:05:41.141Z,14.14
2022-09-03T06:06:41.127Z,14.14
2022-09-03T06:07:41.116Z,14.14
2022-09-03T06:08:41.102Z,14.15
2022-09-03T06:09:41.085Z,14.18
2022-09-03T06:10:41.326Z,14.20
2022-09-03T06:11:41.059Z,14.20
2022-09-03T06:12:41.050Z,14.22
2022-09-03T06:13:41.038Z,14.22
2022-09-03T06:14:41.028Z,14.23
2022-09-03T06:15:41.009Z,14.22
2022-09-03T06:16:41.104Z,14.25
2022-09-03T06:17:40.990Z,14.26
2022-09-03T06:18:40.979Z,14.26
2022-09-03T06:19:40.961Z,14.28
2022-09-03T06:20:40.948Z,14.30
2022-09-03T06:21:40.940Z,14.33
2022-09-03T06:22:40.928Z,14.35
2022-09-03T06:23:40.984Z,14.36
2022-09-03T06:24:40.897Z,14.37
2022-09-03T06:25:40.890Z,14.41
2022-09-03T06:26:40.872Z,14.44
2022-09-03T06:27:40.858Z,14.45
2022-09-03T06:28:40.847Z,14.48
2022-09-03T06:29:40.837Z,14.51
2022-09-03T06:30:40.823Z,14.53
2022-09-03T06:31:40.948Z,14.54
2022-09-03T06:32:40.793Z,14.54
2022-09-03T06:33:40.793Z,14.55
2022-09-03T06:34:40.788Z,14.54
2022-09-03T06:35:42.907Z,14.54
2022-09-03T06:36:40.749Z,14.58
2022-09-03T06:37:40.746Z,14.59
2022-09-03T06:38:40.717Z,14.59
2022-09-03T06:39:40.811Z,14.60
2022-09-03T06:40:40.695Z,14.62
2022-09-03T06:41:40.693Z,14.65
2022-09-03T06:42:40.668Z,14.66
2022-09-03T06:43:40.654Z,14.68
2022-09-03T06:44:40.644Z,14.69
2022-09-03T06:45:40.671Z,14.70
2022-09-03T06:46:40.618Z,14.70
2022-09-03T06:47:40.605Z,14.70
2022-09-03T06:48:40.595Z,14.72
2022-09-03T06:49:40.582Z,14.77
2022-09-03T06:50:40.565Z,14.78
2022-09-03T06:51:40.558Z,14.81
2022-09-03T06:52:40.547Z,14.77
2022-09-03T06:53:40.531Z,14.73
2022-09-03T06:54:40.520Z,14.72
2022-09-03T06:55:40.501Z,14.73
2022-09-03T06:56:41.137Z,14.77
2022-09-03T06:57:40.479Z,14.79
2022-09-03T06:58:40.467Z,14.82
2022-09-03T06:59:40.454Z,14.86
2022-09-03T07:00:40.581Z,14.84
2022-09-03T07:01:40.606Z,14.82
2022-09-03T07:02:44.277Z,14.84
2022-09-03T07:03:40.402Z,14.86
2022-09-03T07:04:40.390Z,14.89
2022-09-03T07:05:40.376Z,14.91
2022-09-03T07:06:40.378Z,14.92
2022-09-03T07:07:40.351Z,14.96
2022-09-03T07:08:40.338Z,14.99
2022-09-03T07:09:41.644Z,15.02
2022-09-03T07:10:40.310Z,15.04
2022-09-03T07:11:40.297Z,15.09
2022-09-03T07:12:40.284Z,15.11
2022-09-03T07:13:40.274Z,15.15
2022-09-03T07:14:40.255Z,15.21
2022-09-03T07:15:40.246Z,15.28
2022-09-03T07:16:40.352Z,15.31
2022-09-03T07:17:40.247Z,15.35
2022-09-03T07:18:40.207Z,15.35
2022-09-03T07:19:40.221Z,15.40
2022-09-03T07:20:40.211Z,15.39
2022-09-03T07:21:40.174Z,15.42
2022-09-03T07:22:40.159Z,15.46
2022-09-03T07:23:40.144Z,15.51
2022-09-03T07:24:40.135Z,15.58
2022-09-03T07:25:40.119Z,15.58
2022-09-03T07:26:40.103Z,15.57
2022-09-03T07:27:40.091Z,15.64
2022-09-03T07:28:40.079Z,15.68
2022-09-03T07:29:40.067Z,15.75
2022-09-03T07:30:40.056Z,15.82
2022-09-03T07:31:40.274Z,15.82
2022-09-03T07:32:40.023Z,15.82
2022-09-03T07:33:40.017Z,15.90
2022-09-03T07:34:40.004Z,16.00
2022-09-03T07:35:39.992Z,16.13
2022-09-03T07:36:39.974Z,16.32
2022-09-03T07:37:39.959Z,16.32
2022-09-03T07:38:39.954Z,16.32
2022-09-03T07:39:39.989Z,16.32
2022-09-03T07:40:39.924Z,16.29
2022-09-03T07:41:39.914Z,16.29
2022-09-03T07:42:39.901Z,16.24
2022-09-03T07:43:39.894Z,16.15
2022-09-03T07:44:39.871Z,16.08
2022-09-03T07:45:39.863Z,16.00
2022-09-03T07:46:39.901Z,15.98
2022-09-03T07:47:39.834Z,15.86
2022-09-03T07:48:39.831Z,15.83
2022-09-03T07:49:39.814Z,15.82
2022-09-03T07:50:39.796Z,15.84
2022-09-03T07:51:39.784Z,15.86
2022-09-03T07:52:39.769Z,15.86
2022-09-03T07:53:39.755Z,15.95
2022-09-03T07:54:39.743Z,16.05
2022-09-03T07:55:39.730Z,16.08
2022-09-03T07:56:39.722Z,16.10
2022-09-03T07:57:39.703Z,16.21
2022-09-03T07:58:39.737Z,16.29
2022-09-03T07:59:39.681Z,16.42
2022-09-03T08:00:39.714Z,16.57
2022-09-03T08:01:41.567Z,16.61
2022-09-03T08:02:44.163Z,16.87
2022-09-03T08:03:40.744Z,16.96
2022-09-03T08:04:39.617Z,17.02
2022-09-03T08:05:39.619Z,17.14
2022-09-03T08:06:39.596Z,17.22
2022-09-03T08:07:39.582Z,17.34
2022-09-03T08:08:39.567Z,17.38
2022-09-03T08:09:39.556Z,17.42
2022-09-03T08:10:39.545Z,17.39
2022-09-03T08:11:39.553Z,17.49
2022-09-03T08:12:39.513Z,17.67
2022-09-03T08:13:39.501Z,17.78
2022-09-03T08:14:39.487Z,17.86
2022-09-03T08:15:39.469Z,17.86
2022-09-03T08:16:39.807Z,17.89
2022-09-03T08:17:39.447Z,17.94
2022-09-03T08:18:39.434Z,17.92
2022-09-03T08:19:39.430Z,17.89
2022-09-03T08:20:39.408Z,17.79
2022-09-03T08:21:39.402Z,17.52
2022-09-03T08:22:39.385Z,17.39
2022-09-03T08:23:39.370Z,17.41
2022-09-03T08:24:39.359Z,17.52
2022-09-03T08:25:39.349Z,17.63
2022-09-03T08:26:39.334Z,17.70
2022-09-03T08:27:39.321Z,17.80
2022-09-03T08:28:39.311Z,17.86
2022-09-03T08:29:39.298Z,17.86
2022-09-03T08:30:39.291Z,17.87
2022-09-03T08:31:39.374Z,17.90
2022-09-03T08:32:39.259Z,17.98
2022-09-03T08:33:39.246Z,18.05
2022-09-03T08:34:39.230Z,18.08
2022-09-03T08:35:39.214Z,18.07
2022-09-03T08:36:39.209Z,18.10
2022-09-03T08:37:39.195Z,18.22
2022-09-03T08:38:39.187Z,18.23
2022-09-03T08:39:39.240Z,18.20
2022-09-03T08:40:39.156Z,18.18
2022-09-03T08:41:39.140Z,18.19
2022-09-03T08:42:39.136Z,18.26
2022-09-03T08:43:39.113Z,18.33
2022-09-03T08:44:39.101Z,18.34
2022-09-03T08:45:39.091Z,18.37
2022-09-03T08:46:39.170Z,18.38
2022-09-03T08:47:39.082Z,18.35
2022-09-03T08:48:39.051Z,18.34
2022-09-03T08:49:39.038Z,18.31
2022-09-03T08:50:39.021Z,18.26
2022-09-03T08:51:39.008Z,18.26
2022-09-03T08:52:39.014Z,18.26
2022-09-03T08:53:38.985Z,18.22
2022-09-03T08:54:38.985Z,18.20
2022-09-03T08:55:38.956Z,18.22
2022-09-03T08:56:38.943Z,18.20
2022-09-03T08:57:38.929Z,18.25
2022-09-03T08:58:38.928Z,18.29
2022-09-03T08:59:38.904Z,18.37
2022-09-03T09:00:38.896Z,18.38
2022-09-03T09:01:39.051Z,18.40
2022-09-03T09:02:39.074Z,18.45
2022-09-03T09:03:38.856Z,18.49
2022-09-03T09:04:38.840Z,18.44
2022-09-03T09:05:38.827Z,18.45
2022-09-03T09:06:38.819Z,18.50
2022-09-03T09:07:38.803Z,18.53
2022-09-03T09:08:38.792Z,18.62
2022-09-03T09:09:38.782Z,18.59
2022-09-03T09:10:38.766Z,18.59
2022-09-03T09:11:38.752Z,18.60
2022-09-03T09:12:45.633Z,18.65
2022-09-03T09:13:39.773Z,18.65
2022-09-03T09:14:39.501Z,18.73
2022-09-03T09:15:38.739Z,18.73
2022-09-03T09:16:38.696Z,18.70
2022-09-03T09:17:38.677Z,18.70
2022-09-03T09:18:38.662Z,18.71
2022-09-03T09:19:38.652Z,18.71
2022-09-03T09:20:38.637Z,18.68
2022-09-03T09:21:38.630Z,18.71
2022-09-03T09:22:38.610Z,18.77
2022-09-03T09:23:38.600Z,18.81
2022-09-03T09:24:38.592Z,18.86
2022-09-03T09:25:38.577Z,18.96
2022-09-03T09:26:38.564Z,19.08
2022-09-03T09:27:38.549Z,19.07
2022-09-03T09:28:38.542Z,19.08
2022-09-03T09:29:38.523Z,19.09
2022-09-03T09:30:38.510Z,19.14
2022-09-03T09:31:38.562Z,19.16
2022-09-03T09:32:38.486Z,19.19
2022-09-03T09:33:38.473Z,19.22
2022-09-03T09:34:38.461Z,19.31
2022-09-03T09:35:38.449Z,19.37
2022-09-03T09:36:38.432Z,19.41
2022-09-03T09:37:38.422Z,19.45
2022-09-03T09:38:38.415Z,19.52
2022-09-03T09:39:38.477Z,19.62
2022-09-03T09:40:41.475Z,19.70
2022-09-03T09:41:39.407Z,19.74
2022-09-03T09:42:38.354Z,19.71
2022-09-03T09:43:38.343Z,19.74
2022-09-03T09:44:38.329Z,19.88
2022-09-03T09:45:38.329Z,20.03
2022-09-03T09:46:38.332Z,20.14
2022-09-03T09:47:38.299Z,20.26
2022-09-03T09:48:38.280Z,20.26
2022-09-03T09:49:38.276Z,20.28
2022-09-03T09:50:38.257Z,20.34
2022-09-03T09:51:38.240Z,20.34
2022-09-03T09:52:38.235Z,20.36
2022-09-03T09:53:38.218Z,20.29
2022-09-03T09:54:38.210Z,20.28
2022-09-03T09:55:38.196Z,20.26
2022-09-03T09:56:38.179Z,20.26
2022-09-03T09:57:38.167Z,20.22
2022-09-03T09:58:38.169Z,20.13
2022-09-03T09:59:38.154Z,20.07
2022-09-03T10:00:38.130Z,20.06
2022-09-03T10:01:38.174Z,20.04
2022-09-03T10:02:38.207Z,20.02
2022-09-03T10:03:38.092Z,19.94
2022-09-03T10:04:38.079Z,19.89
2022-09-03T10:05:38.066Z,19.82
2022-09-03T10:06:38.055Z,19.76
2022-09-03T10:07:38.035Z,19.69
2022-09-03T10:08:38.022Z,19.66
2022-09-03T10:09:38.016Z,19.56
2022-09-03T10:10:38.001Z,19.48
2022-09-03T10:11:37.990Z,19.44
2022-09-03T10:12:37.979Z,19.34
2022-09-03T10:13:37.970Z,19.26
2022-09-03T10:14:37.952Z,19.19
2022-09-03T10:15:38.001Z,19.12
2022-09-03T10:16:37.936Z,19.07
2022-09-03T10:17:37.913Z,18.96
2022-09-03T10:18:37.897Z,18.92
2022-09-03T10:19:37.895Z,18.86
2022-09-03T10:20:37.880Z,18.78
2022-09-03T10:21:37.860Z,18.73
2022-09-03T10:22:37.851Z,18.58
2022-09-03T10:23:37.853Z,18.44
2022-09-03T10:24:37.820Z,18.35
2022-09-03T10:25:37.811Z,18.26
2022-09-03T10:26:37.795Z,18.23
2022-09-03T10:27:37.786Z,18.18
2022-09-03T10:28:37.772Z,18.08
2022-09-03T10:29:37.761Z,18.01
2022-09-03T10:30:37.853Z,17.97
2022-09-03T10:31:37.733Z,17.89
2022-09-03T10:32:39.359Z,17.80
2022-09-03T10:33:37.716Z,17.72
2022-09-03T10:34:37.710Z,17.64
2022-09-03T10:35:37.685Z,17.49
2022-09-03T10:36:37.671Z,17.45
2022-09-03T10:37:37.661Z,17.38
2022-09-03T10:38:37.651Z,17.29
2022-09-03T10:39:42.806Z,17.16
2022-09-03T10:40:37.635Z,17.05
2022-09-03T10:41:37.612Z,16.81
2022-09-03T10:42:37.598Z,16.61
2022-09-03T10:43:37.588Z,16.39
2022-09-03T10:44:37.569Z,16.23
2022-09-03T10:45:38.523Z,16.10
2022-09-03T10:46:37.671Z,16.01
2022-09-03T10:47:37.534Z,15.94
2022-09-03T10:48:37.536Z,15.86
2022-09-03T10:49:37.510Z,15.83
2022-09-03T10:50:37.500Z,15.76
2022-09-03T10:51:37.486Z,15.68
2022-09-03T10:52:37.471Z,15.65
2022-09-03T10:53:37.466Z,15.58
2022-09-03T10:54:37.452Z,15.51
2022-09-03T10:55:37.438Z,15.54
2022-09-03T10:56:37.424Z,15.58
2022-09-03T10:57:37.406Z,15.64
2022-09-03T10:58:37.400Z,15.65
2022-09-03T10:59:37.386Z,15.72
2022-09-03T11:00:37.371Z,15.77
2022-09-03T11:01:37.386Z,15.88
2022-09-03T11:02:37.388Z,15.94
2022-09-03T11:03:37.362Z,16.09
2022-09-03T11:04:37.793Z,16.15
2022-09-03T11:05:37.307Z,16.20
2022-09-03T11:06:37.295Z,16.26
2022-09-03T11:07:37.281Z,16.31
2022-09-03T11:08:37.269Z,16.38
2022-09-03T11:09:37.262Z,16.49
2022-09-03T11:10:37.248Z,16.54
2022-09-03T11:11:37.230Z,16.51
2022-09-03T11:12:37.217Z,16.53
2022-09-03T11:13:37.211Z,16.64
2022-09-03T11:14:37.196Z,16.68
2022-09-03T11:15:37.259Z,16.68
2022-09-03T11:16:37.174Z,16.74
2022-09-03T11:17:37.169Z,16.76
2022-09-03T11:18:37.154Z,16.83
2022-09-03T11:19:37.131Z,16.91
2022-09-03T11:20:37.120Z,16.99
2022-09-03T11:21:37.103Z,17.06
2022-09-03T11:22:37.091Z,17.14
2022-09-03T11:23:37.144Z,17.20
2022-09-03T11:24:37.071Z,17.29
2022-09-03T11:25:37.078Z,17.16
2022-09-03T11:26:37.044Z,17.14
2022-09-03T11:27:37.029Z,17.19
2022-09-03T11:28:37.016Z,17.24
2022-09-03T11:29:37.005Z,17.27
2022-09-03T11:30:37.050Z,17.36
2022-09-03T11:31:36.991Z,17.39
2022-09-03T11:32:36.971Z,17.41
2022-09-03T11:33:36.975Z,17.42
2022-09-03T11:34:36.941Z,17.46
2022-09-03T11:35:36.928Z,17.45
2022-09-03T11:36:36.924Z,17.38
2022-09-03T11:37:36.914Z,17.36
2022-09-03T11:38:36.899Z,17.34
2022-09-03T11:39:36.964Z,17.44
2022-09-03T11:40:36.865Z,17.51
2022-09-03T11:41:36.856Z,17.54
2022-09-03T11:42:36.856Z,17.49
2022-09-03T11:43:36.831Z,17.59
2022-09-03T11:44:36.818Z,17.65
2022-09-03T11:45:36.813Z,17.71
2022-09-03T11:46:36.859Z,17.70
2022-09-03T11:47:36.791Z,17.71
2022-09-03T11:48:36.762Z,17.78
2022-09-03T11:49:36.755Z,17.80
2022-09-03T11:51:36.735Z,18.07
2022-09-03T11:52:36.718Z,18.18
2022-09-03T11:53:36.705Z,18.20
2022-09-03T11:54:36.694Z,18.25
2022-09-03T11:55:43.676Z,18.34
2022-09-03T11:56:37.697Z,18.37
2022-09-03T11:57:36.647Z,18.38
2022-09-03T11:58:36.644Z,18.44
2022-09-03T11:59:36.629Z,18.50
2022-09-03T12:00:36.618Z,18.56
2022-09-03T12:01:36.599Z,18.52
2022-09-03T12:02:36.654Z,18.58
2022-09-03T12:03:36.585Z,18.53
2022-09-03T12:04:36.637Z,18.52
2022-09-03T12:05:36.554Z,18.52
2022-09-03T12:06:36.542Z,18.53
2022-09-03T12:07:36.532Z,18.56
2022-09-03T12:08:36.514Z,18.56
2022-09-03T12:09:36.499Z,18.45
2022-09-03T12:10:36.503Z,18.43
2022-09-03T12:11:36.480Z,18.41
2022-09-03T12:12:36.466Z,18.37
2022-09-03T12:13:36.447Z,18.29
2022-09-03T12:14:36.437Z,18.25
2022-09-03T12:15:36.481Z,18.19
2022-09-03T12:16:36.406Z,18.11
2022-09-03T12:17:36.402Z,18.10
2022-09-03T12:18:36.382Z,18.04
2022-09-03T12:19:36.369Z,18.04
2022-09-03T12:20:36.357Z,17.98
2022-09-03T12:21:36.346Z,17.92
2022-09-03T12:22:36.332Z,17.87
2022-09-03T12:23:36.321Z,17.82
2022-09-03T12:24:38.200Z,17.83
2022-09-03T12:25:36.307Z,17.85
2022-09-03T12:26:36.286Z,17.89
2022-09-03T12:27:36.280Z,17.89
2022-09-03T12:28:36.260Z,17.89
2022-09-03T12:29:36.248Z,17.90
2022-09-03T12:30:36.253Z,17.97
2022-09-03T12:31:40.060Z,17.98
2022-09-03T12:32:37.401Z,18.03
2022-09-03T12:33:36.208Z,18.07
2022-09-03T12:34:36.186Z,18.10
2022-09-03T12:36:36.149Z,18.05
2022-09-03T12:39:00.691Z,18.07
2022-09-03T12:41:23.086Z,18.11
2022-09-03T12:41:37.187Z,18.13
2022-09-03T12:42:36.089Z,18.19
2022-09-03T12:43:38.165Z,18.16
2022-09-03T12:44:36.063Z,18.11
2022-09-03T12:46:36.147Z,18.07
2022-09-03T12:47:37.553Z,18.01
2022-09-03T12:48:36.008Z,17.95
2022-09-03T12:49:35.998Z,17.95
2022-09-03T12:50:41.586Z,17.98
2022-09-03T12:51:56.278Z,18.01
2022-09-03T12:52:36.990Z,18.01
2022-09-03T12:53:35.955Z,18.05
2022-09-03T12:54:35.939Z,18.10
2022-09-03T12:55:35.968Z,18.15
2022-09-03T12:56:35.909Z,18.16
2022-09-03T12:57:35.895Z,18.13